sensor_id;sensor_type;location;lat;lon;timestamp;temperature;humidity
52435;DHT22;38354;52.892;6.148;2023-04-03T03:01:49;1.60;99.90
52435;DHT22;38354;52.892;6.148;2023-04-03T03:04:14;1.60;99.90
52435;DHT22;38354;52.892;6.148;2023-04-03T03:06:40;1.50;99.90
52435;DHT22;38354;52.892;6.148;2023-04-03T03:09:06;1.50;99.90
52435;DHT22;38354;52.892;6.148;2023-04-03T03:11:32;1.50;99.90
52435;DHT22;38354;52.892;6.148;2023-04-03T03:13:57;1.50;99.90
52435;DHT22;38354;52.892;6.148;2023-04-03T03:16:23;1.50;99.90
52435;DHT22;38354;52.892;6.148;2023-04-03T03:18:49;1.40;99.90
52435;DHT22;38354;52.892;6.148;2023-04-03T03:21:14;1.40;99.90
52435;DHT22;38354;52.892;6.148;2023-04-03T03:23:40;1.40;99.90
52435;DHT22;38354;52.892;6.148;2023-04-03T03:26:08;1.40;99.90
52435;DHT22;38354;52.892;6.148;2023-04-03T03:28:36;1.40;99.90
52435;DHT22;38354;52.892;6.148;2023-04-03T03:31:02;1.40;99.90
52435;DHT22;38354;52.892;6.148;2023-04-03T03:33:29;1.40;99.90
52435;DHT22;38354;52.892;6.148;2023-04-03T03:35:55;1.40;99.90
52435;DHT22;38354;52.892;6.148;2023-04-03T03:38:21;1.40;99.90
52435;DHT22;38354;52.892;6.148;2023-04-03T03:40:48;1.40;99.90
52435;DHT22;38354;52.892;6.148;2023-04-03T03:43:14;1.40;99.90
52435;DHT22;38354;52.892;6.148;2023-04-03T03:45:40;1.30;99.90
52435;DHT22;38354;52.892;6.148;2023-04-03T03:48:06;1.30;99.90
52435;DHT22;38354;52.892;6.148;2023-04-03T03:50:32;1.30;99.90
52435;DHT22;38354;52.892;6.148;2023-04-03T03:52:57;1.30;99.90
52435;DHT22;38354;52.892;6.148;2023-04-03T03:55:23;1.30;99.90
52435;DHT22;38354;52.892;6.148;2023-04-03T03:57:49;1.20;99.90
52435;DHT22;38354;52.892;6.148;2023-04-03T04:00:15;1.20;99.90
52435;DHT22;38354;52.892;6.148;2023-04-03T04:02:41;1.20;99.90
52435;DHT22;38354;52.892;6.148;2023-04-03T04:05:07;1.20;99.90
52435;DHT22;38354;52.892;6.148;2023-04-03T04:07:33;1.20;99.90
52435;DHT22;38354;52.892;6.148;2023-04-03T04:09:59;1.20;99.90
52435;DHT22;38354;52.892;6.148;2023-04-03T04:12:24;1.10;99.90
52435;DHT22;38354;52.892;6.148;2023-04-03T04:14:50;1.10;99.90
52435;DHT22;38354;52.892;6.148;2023-04-03T04:17:16;1.10;99.90
52435;DHT22;38354;52.892;6.148;2023-04-03T04:19:43;1.00;99.90
52435;DHT22;38354;52.892;6.148;2023-04-03T04:22:11;1.00;99.90
52435;DHT22;38354;52.892;6.148;2023-04-03T04:24:37;0.90;99.90
52435;DHT22;38354;52.892;6.148;2023-04-03T04:27:03;0.80;99.90
52435;DHT22;38354;52.892;6.148;2023-04-03T04:29:28;0.80;99.90
52435;DHT22;38354;52.892;6.148;2023-04-03T04:31:54;0.80;99.90
52435;DHT22;38354;52.892;6.148;2023-04-03T04:34:20;0.80;99.90
52435;DHT22;38354;52.892;6.148;2023-04-03T04:36:45;0.70;99.90
52435;DHT22;38354;52.892;6.148;2023-04-03T04:39:11;0.60;99.90
52435;DHT22;38354;52.892;6.148;2023-04-03T04:41:36;0.60;99.90
52435;DHT22;38354;52.892;6.148;2023-04-03T04:44:02;0.60;99.90
52435;DHT22;38354;52.892;6.148;2023-04-03T04:46:28;0.60;99.90
52435;DHT22;38354;52.892;6.148;2023-04-03T04:48:53;0.50;99.90
52435;DHT22;38354;52.892;6.148;2023-04-03T04:51:19;0.50;99.90
52435;DHT22;38354;52.892;6.148;2023-04-03T04:53:45;0.50;99.90
52435;DHT22;38354;52.892;6.148;2023-04-03T04:56:11;0.50;99.90
52435;DHT22;38354;52.892;6.148;2023-04-03T04:58:37;0.50;99.90
52435;DHT22;38354;52.892;6.148;2023-04-03T05:01:07;0.40;99.90
52435;DHT22;38354;52.892;6.148;2023-04-03T05:03:33;0.40;99.90
52435;DHT22;38354;52.892;6.148;2023-04-03T05:05:59;0.40;99.90
52435;DHT22;38354;52.892;6.148;2023-04-03T05:08:25;0.40;99.90
52435;DHT22;38354;52.892;6.148;2023-04-03T05:10:51;0.40;99.90
52435;DHT22;38354;52.892;6.148;2023-04-03T05:13:18;0.40;99.90
52435;DHT22;38354;52.892;6.148;2023-04-03T05:15:45;0.40;99.90
52435;DHT22;38354;52.892;6.148;2023-04-03T05:18:11;0.40;99.90
52435;DHT22;38354;52.892;6.148;2023-04-03T05:20:36;0.30;99.90
52435;DHT22;38354;52.892;6.148;2023-04-03T05:23:03;0.30;99.90
52435;DHT22;38354;52.892;6.148;2023-04-03T05:25:28;0.30;99.90
52435;DHT22;38354;52.892;6.148;2023-04-03T05:27:54;0.30;99.90
52435;DHT22;38354;52.892;6.148;2023-04-03T05:30:20;0.30;99.90
52435;DHT22;38354;52.892;6.148;2023-04-03T05:32:45;0.30;99.90
52435;DHT22;38354;52.892;6.148;2023-04-03T05:35:11;0.30;99.90
52435;DHT22;38354;52.892;6.148;2023-04-03T05:37:37;0.30;99.90
52435;DHT22;38354;52.892;6.148;2023-04-03T05:40:04;0.30;99.90
52435;DHT22;38354;52.892;6.148;2023-04-03T05:42:30;0.30;99.90
52435;DHT22;38354;52.892;6.148;2023-04-03T05:44:56;0.40;99.90
52435;DHT22;38354;52.892;6.148;2023-04-03T05:47:22;0.40;99.90
52435;DHT22;38354;52.892;6.148;2023-04-03T05:49:48;0.40;99.90
52435;DHT22;38354;52.892;6.148;2023-04-03T05:54:48;0.40;99.90
52435;DHT22;38354;52.892;6.148;2023-04-03T05:57:15;0.40;99.90
52435;DHT22;38354;52.892;6.148;2023-04-03T05:59:45;0.40;99.90
52435;DHT22;38354;52.892;6.148;2023-04-03T06:02:14;0.50;99.90
52435;DHT22;38354;52.892;6.148;2023-04-03T06:04:40;0.50;99.90
52435;DHT22;38354;52.892;6.148;2023-04-03T06:07:06;0.50;99.90
52435;DHT22;38354;52.892;6.148;2023-04-03T06:09:32;0.60;99.90
52435;DHT22;38354;52.892;6.148;2023-04-03T06:11:58;0.60;99.90
52435;DHT22;38354;52.892;6.148;2023-04-03T06:14:25;0.60;99.90
52435;DHT22;38354;52.892;6.148;2023-04-03T06:16:52;0.70;99.90
52435;DHT22;38354;52.892;6.148;2023-04-03T06:19:18;0.70;99.90
52435;DHT22;38354;52.892;6.148;2023-04-03T06:21:43;0.70;99.90
52435;DHT22;38354;52.892;6.148;2023-04-03T06:24:12;0.80;99.90
52435;DHT22;38354;52.892;6.148;2023-04-03T06:26:39;0.80;99.90
52435;DHT22;38354;52.892;6.148;2023-04-03T06:29:04;0.90;99.90
52435;DHT22;38354;52.892;6.148;2023-04-03T06:31:30;0.90;99.90
52435;DHT22;38354;52.892;6.148;2023-04-03T06:33:55;1.00;99.90
52435;DHT22;38354;52.892;6.148;2023-04-03T06:36:22;1.00;99.90
52435;DHT22;38354;52.892;6.148;2023-04-03T06:38:48;1.10;99.90
52435;DHT22;38354;52.892;6.148;2023-04-03T06:41:14;1.10;99.90
52435;DHT22;38354;52.892;6.148;2023-04-03T06:43:40;1.20;99.90
52435;DHT22;38354;52.892;6.148;2023-04-03T06:46:06;1.20;99.90
52435;DHT22;38354;52.892;6.148;2023-04-03T06:48:32;1.30;99.90
52435;DHT22;38354;52.892;6.148;2023-04-03T06:50:57;1.40;99.90
52435;DHT22;38354;52.892;6.148;2023-04-03T06:53:23;1.40;99.90
52435;DHT22;38354;52.892;6.148;2023-04-03T06:55:49;1.50;99.90
52435;DHT22;38354;52.892;6.148;2023-04-03T06:58:16;1.50;99.90
52435;DHT22;38354;52.892;6.148;2023-04-03T07:00:42;1.60;99.90
52435;DHT22;38354;52.892;6.148;2023-04-03T07:03:08;1.70;99.90
52435;DHT22;38354;52.892;6.148;2023-04-03T07:05:34;1.70;99.90
52435;DHT22;38354;52.892;6.148;2023-04-03T07:08:00;1.80;99.90
52435;DHT22;38354;52.892;6.148;2023-04-03T07:10:26;1.90;99.90
52435;DHT22;38354;52.892;6.148;2023-04-03T07:12:52;2.00;99.90
52435;DHT22;38354;52.892;6.148;2023-04-03T07:15:18;2.00;99.90
52435;DHT22;38354;52.892;6.148;2023-04-03T07:17:43;2.10;99.90
52435;DHT22;38354;52.892;6.148;2023-04-03T07:20:09;2.20;99.90
52435;DHT22;38354;52.892;6.148;2023-04-03T07:22:36;2.30;99.90
52435;DHT22;38354;52.892;6.148;2023-04-03T07:25:02;2.40;99.90
52435;DHT22;38354;52.892;6.148;2023-04-03T07:27:28;2.50;99.90
52435;DHT22;38354;52.892;6.148;2023-04-03T07:29:53;2.60;99.90
52435;DHT22;38354;52.892;6.148;2023-04-03T07:32:21;2.70;99.90
52435;DHT22;38354;52.892;6.148;2023-04-03T07:34:47;2.80;99.90
52435;DHT22;38354;52.892;6.148;2023-04-03T07:37:12;2.80;99.90
52435;DHT22;38354;52.892;6.148;2023-04-03T07:39:38;2.90;99.90
52435;DHT22;38354;52.892;6.148;2023-04-03T07:42:04;3.00;99.90
52435;DHT22;38354;52.892;6.148;2023-04-03T07:44:29;3.10;99.90
52435;DHT22;38354;52.892;6.148;2023-04-03T07:46:56;3.10;99.90
52435;DHT22;38354;52.892;6.148;2023-04-03T07:49:22;3.20;99.90
52435;DHT22;38354;52.892;6.148;2023-04-03T07:51:49;3.30;99.90
52435;DHT22;38354;52.892;6.148;2023-04-03T07:54:15;3.40;99.90
52435;DHT22;38354;52.892;6.148;2023-04-03T07:56:41;3.50;99.90
52435;DHT22;38354;52.892;6.148;2023-04-03T07:59:09;3.50;99.90
52435;DHT22;38354;52.892;6.148;2023-04-03T08:01:35;3.60;99.90
52435;DHT22;38354;52.892;6.148;2023-04-03T08:04:01;3.70;99.90
52435;DHT22;38354;52.892;6.148;2023-04-03T08:06:27;3.80;99.90
52435;DHT22;38354;52.892;6.148;2023-04-03T08:08:55;3.90;99.90
52435;DHT22;38354;52.892;6.148;2023-04-03T08:11:21;4.00;99.90
52435;DHT22;38354;52.892;6.148;2023-04-03T08:13:47;4.10;99.90
52435;DHT22;38354;52.892;6.148;2023-04-03T08:16:18;4.20;99.90
52435;DHT22;38354;52.892;6.148;2023-04-03T08:18:45;4.20;99.90
52435;DHT22;38354;52.892;6.148;2023-04-03T08:21:12;4.30;99.90
52435;DHT22;38354;52.892;6.148;2023-04-03T08:23:38;4.40;99.90
52435;DHT22;38354;52.892;6.148;2023-04-03T08:26:14;4.50;99.90
52435;DHT22;38354;52.892;6.148;2023-04-03T08:28:41;4.60;99.90
52435;DHT22;38354;52.892;6.148;2023-04-03T08:31:13;4.80;99.90
52435;DHT22;38354;52.892;6.148;2023-04-03T08:33:39;4.90;99.90
52435;DHT22;38354;52.892;6.148;2023-04-03T08:36:07;5.00;99.90
52435;DHT22;38354;52.892;6.148;2023-04-03T08:38:34;5.10;99.90
52435;DHT22;38354;52.892;6.148;2023-04-03T08:46:26;6.00;99.90
52435;DHT22;38354;52.892;6.148;2023-04-03T08:48:58;7.20;99.90
52435;DHT22;38354;52.892;6.148;2023-04-03T08:51:26;8.10;99.90
52435;DHT22;38354;52.892;6.148;2023-04-03T08:54:05;8.80;99.90
52435;DHT22;38354;52.892;6.148;2023-04-03T08:56:33;9.30;99.90
52435;DHT22;38354;52.892;6.148;2023-04-03T08:59:04;9.70;99.90
52435;DHT22;38354;52.892;6.148;2023-04-03T09:01:38;10.20;99.90
52435;DHT22;38354;52.892;6.148;2023-04-03T09:04:16;10.40;99.90
52435;DHT22;38354;52.892;6.148;2023-04-03T09:06:49;10.20;99.90
52435;DHT22;38354;52.892;6.148;2023-04-03T09:09:35;9.80;99.90
52435;DHT22;38354;52.892;6.148;2023-04-03T09:12:27;9.10;99.90
52435;DHT22;38354;52.892;6.148;2023-04-03T09:15:14;8.70;99.90
52435;DHT22;38354;52.892;6.148;2023-04-03T09:20:39;8.80;99.90
52435;DHT22;38354;52.892;6.148;2023-04-03T09:26:17;9.30;99.90
52435;DHT22;38354;52.892;6.148;2023-04-03T09:28:45;9.30;99.90
52435;DHT22;38354;52.892;6.148;2023-04-03T09:31:21;9.20;99.90
52435;DHT22;38354;52.892;6.148;2023-04-03T09:33:50;9.20;99.90
52435;DHT22;38354;52.892;6.148;2023-04-03T09:36:48;9.50;99.90
52435;DHT22;38354;52.892;6.148;2023-04-03T09:39:23;9.70;99.90
52435;DHT22;38354;52.892;6.148;2023-04-03T09:42:04;9.50;99.90
52435;DHT22;38354;52.892;6.148;2023-04-03T09:44:38;9.60;99.90
52435;DHT22;38354;52.892;6.148;2023-04-03T09:49:48;10.30;99.90
52435;DHT22;38354;52.892;6.148;2023-04-03T09:52:24;10.50;99.90
52435;DHT22;38354;52.892;6.148;2023-04-03T09:54:50;10.50;99.90
52435;DHT22;38354;52.892;6.148;2023-04-03T09:57:16;10.50;99.90
52435;DHT22;38354;52.892;6.148;2023-04-03T09:59:56;10.30;99.90
52435;DHT22;38354;52.892;6.148;2023-04-03T10:04:49;10.10;99.90
52435;DHT22;38354;52.892;6.148;2023-04-03T10:07:34;10.10;99.90
52435;DHT22;38354;52.892;6.148;2023-04-03T10:10:24;10.20;99.90
52435;DHT22;38354;52.892;6.148;2023-04-03T10:13:07;10.10;99.90
52435;DHT22;38354;52.892;6.148;2023-04-03T10:15:56;10.10;99.90
52435;DHT22;38354;52.892;6.148;2023-04-03T10:20:59;10.10;99.90
52435;DHT22;38354;52.892;6.148;2023-04-03T10:23:42;10.20;99.90
52435;DHT22;38354;52.892;6.148;2023-04-03T10:31:43;10.00;97.70
52435;DHT22;38354;52.892;6.148;2023-04-03T10:34:32;10.00;96.70
52435;DHT22;38354;52.892;6.148;2023-04-03T10:37:11;10.20;96.10
52435;DHT22;38354;52.892;6.148;2023-04-03T10:58:44;11.20;94.20
52435;DHT22;38354;52.892;6.148;2023-04-03T11:01:20;11.30;94.90
52435;DHT22;38354;52.892;6.148;2023-04-03T11:03:51;11.40;96.30
52435;DHT22;38354;52.892;6.148;2023-04-03T11:06:20;11.60;96.40
52435;DHT22;38354;52.892;6.148;2023-04-03T11:09:09;11.50;94.60
52435;DHT22;38354;52.892;6.148;2023-04-03T11:11:42;11.60;94.00
52435;DHT22;38354;52.892;6.148;2023-04-03T11:14:27;11.70;93.90
52435;DHT22;38354;52.892;6.148;2023-04-03T11:22:48;11.90;91.10
52435;DHT22;38354;52.892;6.148;2023-04-03T11:25:24;11.90;88.20
52435;DHT22;38354;52.892;6.148;2023-04-03T11:27:59;12.10;90.30
52435;DHT22;38354;52.892;6.148;2023-04-03T11:30:42;12.30;91.20
52435;DHT22;38354;52.892;6.148;2023-04-03T11:33:24;12.40;89.50
52435;DHT22;38354;52.892;6.148;2023-04-03T11:35:58;12.40;83.90
52435;DHT22;38354;52.892;6.148;2023-04-03T11:38:31;12.50;86.40
52435;DHT22;38354;52.892;6.148;2023-04-03T11:41:00;12.50;85.20
52435;DHT22;38354;52.892;6.148;2023-04-03T11:43:30;12.60;88.00
52435;DHT22;38354;52.892;6.148;2023-04-03T11:46:04;12.80;85.20
52435;DHT22;38354;52.892;6.148;2023-04-03T11:51:37;12.90;86.70
52435;DHT22;38354;52.892;6.148;2023-04-03T11:57:44;13.20;82.90
52435;DHT22;38354;52.892;6.148;2023-04-03T12:08:45;13.00;72.50
52435;DHT22;38354;52.892;6.148;2023-04-03T12:37:50;13.00;72.30
52435;DHT22;38354;52.892;6.148;2023-04-03T12:40:37;13.30;73.50
52435;DHT22;38354;52.892;6.148;2023-04-03T12:43:53;13.20;73.90
52435;DHT22;38354;52.892;6.148;2023-04-03T12:46:17;13.30;72.10
52435;DHT22;38354;52.892;6.148;2023-04-03T12:48:56;13.20;73.50
52435;DHT22;38354;52.892;6.148;2023-04-03T12:51:39;13.40;75.30
52435;DHT22;38354;52.892;6.148;2023-04-03T12:54:34;13.60;74.10
52435;DHT22;38354;52.892;6.148;2023-04-03T12:57:18;13.90;73.00
52435;DHT22;38354;52.892;6.148;2023-04-03T12:59:44;14.20;73.10
52435;DHT22;38354;52.892;6.148;2023-04-03T13:02:21;14.40;77.60
52435;DHT22;38354;52.892;6.148;2023-04-03T13:04:47;14.30;74.40
52435;DHT22;38354;52.892;6.148;2023-04-03T13:07:34;14.10;73.90
52435;DHT22;38354;52.892;6.148;2023-04-03T13:17:43;14.60;74.00
52435;DHT22;38354;52.892;6.148;2023-04-03T13:20:17;14.80;74.70
52435;DHT22;38354;52.892;6.148;2023-04-03T13:22:55;15.00;75.20
52435;DHT22;38354;52.892;6.148;2023-04-03T13:25:23;15.10;72.60
52435;DHT22;38354;52.892;6.148;2023-04-03T13:27:50;15.30;74.40
52435;DHT22;38354;52.892;6.148;2023-04-03T13:30:27;15.20;73.70
52435;DHT22;38354;52.892;6.148;2023-04-03T13:32:55;15.20;71.00
52435;DHT22;38354;52.892;6.148;2023-04-03T13:35:41;15.40;74.50
52435;DHT22;38354;52.892;6.148;2023-04-03T13:38:28;15.50;68.80
52435;DHT22;38354;52.892;6.148;2023-04-03T13:40:59;15.80;68.50
52435;DHT22;38354;52.892;6.148;2023-04-03T13:43:33;16.00;72.00
52435;DHT22;38354;52.892;6.148;2023-04-03T13:46:06;15.90;72.20
52435;DHT22;38354;52.892;6.148;2023-04-03T13:48:48;15.90;68.60
52435;DHT22;38354;52.892;6.148;2023-04-03T13:58:58;15.50;68.90
52435;DHT22;38354;52.892;6.148;2023-04-03T14:01:25;15.60;70.00
52435;DHT22;38354;52.892;6.148;2023-04-03T14:03:57;15.70;72.30
52435;DHT22;38354;52.892;6.148;2023-04-03T14:06:24;15.80;71.00
52435;DHT22;38354;52.892;6.148;2023-04-03T14:08:50;15.90;72.50
52435;DHT22;38354;52.892;6.148;2023-04-03T14:11:29;16.00;72.30
52435;DHT22;38354;52.892;6.148;2023-04-03T14:13:58;16.10;69.60
52435;DHT22;38354;52.892;6.148;2023-04-03T14:16:28;16.20;72.60
52435;DHT22;38354;52.892;6.148;2023-04-03T14:18:55;16.10;70.00
52435;DHT22;38354;52.892;6.148;2023-04-03T14:21:22;15.90;70.20
52435;DHT22;38354;52.892;6.148;2023-04-03T14:23:48;15.90;70.60
52435;DHT22;38354;52.892;6.148;2023-04-03T14:26:20;15.90;70.20
52435;DHT22;38354;52.892;6.148;2023-04-03T14:28:50;15.70;68.50
52435;DHT22;38354;52.892;6.148;2023-04-03T14:31:17;15.80;69.60
52435;DHT22;38354;52.892;6.148;2023-04-03T14:33:43;15.70;70.00
52435;DHT22;38354;52.892;6.148;2023-04-03T14:36:16;15.90;70.00
52435;DHT22;38354;52.892;6.148;2023-04-03T14:38:43;16.00;69.40
52435;DHT22;38354;52.892;6.148;2023-04-03T14:41:13;16.10;70.30
52435;DHT22;38354;52.892;6.148;2023-04-03T14:43:39;16.00;67.30
52435;DHT22;38354;52.892;6.148;2023-04-03T14:46:09;15.90;69.00
52435;DHT22;38354;52.892;6.148;2023-04-03T14:48:36;15.90;68.90
52435;DHT22;38354;52.892;6.148;2023-04-03T14:51:02;15.60;69.30
52435;DHT22;38354;52.892;6.148;2023-04-03T14:53:38;15.70;69.30
52435;DHT22;38354;52.892;6.148;2023-04-03T14:56:11;15.60;66.70
52435;DHT22;38354;52.892;6.148;2023-04-03T14:58:37;15.70;68.40
52435;DHT22;38354;52.892;6.148;2023-04-03T15:01:03;15.90;70.00
52435;DHT22;38354;52.892;6.148;2023-04-03T15:03:28;15.90;69.40
52435;DHT22;38354;52.892;6.148;2023-04-03T15:05:54;16.10;69.50
52435;DHT22;38354;52.892;6.148;2023-04-03T15:08:26;16.20;69.80
52435;DHT22;38354;52.892;6.148;2023-04-03T15:10:52;16.10;67.50
52435;DHT22;38354;52.892;6.148;2023-04-03T15:13:19;15.80;67.80
52435;DHT22;38354;52.892;6.148;2023-04-03T15:15:46;15.60;67.50
52435;DHT22;38354;52.892;6.148;2023-04-03T15:18:19;15.70;67.30
52435;DHT22;38354;52.892;6.148;2023-04-03T15:20:46;15.70;66.40
52435;DHT22;38354;52.892;6.148;2023-04-03T15:23:13;15.80;67.40
52435;DHT22;38354;52.892;6.148;2023-04-03T15:25:42;15.80;66.80
52435;DHT22;38354;52.892;6.148;2023-04-03T15:28:31;15.70;66.70
52435;DHT22;38354;52.892;6.148;2023-04-03T15:30:55;15.60;66.30
52435;DHT22;38354;52.892;6.148;2023-04-03T15:33:21;15.50;65.70
52435;DHT22;38354;52.892;6.148;2023-04-03T15:35:47;15.40;65.70
52435;DHT22;38354;52.892;6.148;2023-04-03T15:38:12;15.50;65.80
52435;DHT22;38354;52.892;6.148;2023-04-03T15:40:38;15.50;65.80
52435;DHT22;38354;52.892;6.148;2023-04-03T15:43:05;15.60;65.20
52435;DHT22;38354;52.892;6.148;2023-04-03T15:45:32;15.60;65.10
52435;DHT22;38354;52.892;6.148;2023-04-03T15:47:59;15.50;65.00
52435;DHT22;38354;52.892;6.148;2023-04-03T15:50:24;15.40;64.90
52435;DHT22;38354;52.892;6.148;2023-04-03T15:52:51;15.30;64.40
52435;DHT22;38354;52.892;6.148;2023-04-03T15:55:26;15.40;64.50
52435;DHT22;38354;52.892;6.148;2023-04-03T15:57:53;15.50;63.90
52435;DHT22;38354;52.892;6.148;2023-04-03T16:00:20;15.40;64.10
52435;DHT22;38354;52.892;6.148;2023-04-03T16:02:47;15.40;64.70
52435;DHT22;38354;52.892;6.148;2023-04-03T16:05:14;15.40;65.20
52435;DHT22;38354;52.892;6.148;2023-04-03T16:07:43;15.30;65.00
52435;DHT22;38354;52.892;6.148;2023-04-03T16:10:10;15.20;64.50
52435;DHT22;38354;52.892;6.148;2023-04-03T16:12:36;15.10;64.30
52435;DHT22;38354;52.892;6.148;2023-04-03T16:15:03;14.90;63.60
52435;DHT22;38354;52.892;6.148;2023-04-03T16:17:29;14.90;64.00
52435;DHT22;38354;52.892;6.148;2023-04-03T16:19:55;14.70;64.40
52435;DHT22;38354;52.892;6.148;2023-04-03T16:22:22;14.70;64.00
52435;DHT22;38354;52.892;6.148;2023-04-03T16:24:49;14.90;64.30
52435;DHT22;38354;52.892;6.148;2023-04-03T16:27:15;15.00;64.40
52435;DHT22;38354;52.892;6.148;2023-04-03T16:29:41;15.30;64.70
52435;DHT22;38354;52.892;6.148;2023-04-03T16:32:06;15.60;64.00
52435;DHT22;38354;52.892;6.148;2023-04-03T16:34:32;15.80;64.10
52435;DHT22;38354;52.892;6.148;2023-04-03T16:36:58;15.80;64.20
52435;DHT22;38354;52.892;6.148;2023-04-03T16:39:24;15.60;63.80
52435;DHT22;38354;52.892;6.148;2023-04-03T16:41:50;15.30;63.40
52435;DHT22;38354;52.892;6.148;2023-04-03T16:44:15;14.90;63.70
52435;DHT22;38354;52.892;6.148;2023-04-03T16:46:41;14.40;64.00
52435;DHT22;38354;52.892;6.148;2023-04-03T16:49:07;14.10;64.50
52435;DHT22;38354;52.892;6.148;2023-04-03T16:51:32;13.80;65.00
52435;DHT22;38354;52.892;6.148;2023-04-03T16:53:58;13.40;65.60
52435;DHT22;38354;52.892;6.148;2023-04-03T16:56:24;13.30;66.20
52435;DHT22;38354;52.892;6.148;2023-04-03T16:58:52;13.00;66.20
52435;DHT22;38354;52.892;6.148;2023-04-03T17:01:21;12.80;66.90
52435;DHT22;38354;52.892;6.148;2023-04-03T17:03:47;12.60;67.30
52435;DHT22;38354;52.892;6.148;2023-04-03T17:06:17;12.30;67.70
52435;DHT22;38354;52.892;6.148;2023-04-03T17:08:45;12.10;67.40
52435;DHT22;38354;52.892;6.148;2023-04-03T17:11:11;11.90;68.00
52435;DHT22;38354;52.892;6.148;2023-04-03T17:13:37;11.80;68.60
52435;DHT22;38354;52.892;6.148;2023-04-03T17:16:04;11.60;68.70
52435;DHT22;38354;52.892;6.148;2023-04-03T17:18:31;11.60;69.10
52435;DHT22;38354;52.892;6.148;2023-04-03T17:20:58;11.50;69.30
52435;DHT22;38354;52.892;6.148;2023-04-03T17:23:25;11.30;69.80
52435;DHT22;38354;52.892;6.148;2023-04-03T17:25:51;11.20;70.20
52435;DHT22;38354;52.892;6.148;2023-04-03T17:28:19;11.00;70.20
52435;DHT22;38354;52.892;6.148;2023-04-03T17:30:47;10.90;70.80
52435;DHT22;38354;52.892;6.148;2023-04-03T17:33:13;10.80;71.30
52435;DHT22;38354;52.892;6.148;2023-04-03T17:35:38;10.80;71.70
52435;DHT22;38354;52.892;6.148;2023-04-03T17:38:04;10.70;72.20
52435;DHT22;38354;52.892;6.148;2023-04-03T17:40:29;10.80;72.40
52435;DHT22;38354;52.892;6.148;2023-04-03T17:42:55;10.70;72.70
52435;DHT22;38354;52.892;6.148;2023-04-03T17:45:21;10.60;73.00
52435;DHT22;38354;52.892;6.148;2023-04-03T17:47:46;10.50;73.30
52435;DHT22;38354;52.892;6.148;2023-04-03T17:50:14;10.30;73.60
52435;DHT22;38354;52.892;6.148;2023-04-03T17:52:40;10.20;73.80
52435;DHT22;38354;52.892;6.148;2023-04-03T17:55:06;10.10;74.00
52435;DHT22;38354;52.892;6.148;2023-04-03T17:57:32;10.00;74.40
52435;DHT22;38354;52.892;6.148;2023-04-03T17:59:57;9.90;74.60
52435;DHT22;38354;52.892;6.148;2023-04-03T18:02:23;9.80;74.60
52435;DHT22;38354;52.892;6.148;2023-04-03T18:04:52;9.70;74.90
52435;DHT22;38354;52.892;6.148;2023-04-03T18:07:19;9.50;75.00
52435;DHT22;38354;52.892;6.148;2023-04-03T18:09:46;9.40;75.40
52435;DHT22;38354;52.892;6.148;2023-04-03T18:12:12;9.30;75.60
52435;DHT22;38354;52.892;6.148;2023-04-03T18:14:39;9.20;75.70
52435;DHT22;38354;52.892;6.148;2023-04-03T18:17:05;9.10;76.00
52435;DHT22;38354;52.892;6.148;2023-04-03T18:19:31;9.00;76.30
52435;DHT22;38354;52.892;6.148;2023-04-03T18:22:01;8.90;76.30
52435;DHT22;38354;52.892;6.148;2023-04-03T18:24:28;8.80;76.80
52435;DHT22;38354;52.892;6.148;2023-04-03T18:26:59;8.70;77.40
52435;DHT22;38354;52.892;6.148;2023-04-03T18:29:28;8.60;77.60
52435;DHT22;38354;52.892;6.148;2023-04-03T18:31:55;8.60;78.00
52435;DHT22;38354;52.892;6.148;2023-04-03T18:34:21;8.50;78.60
52435;DHT22;38354;52.892;6.148;2023-04-03T18:36:47;8.40;79.70
52435;DHT22;38354;52.892;6.148;2023-04-03T18:39:13;8.30;79.30
52435;DHT22;38354;52.892;6.148;2023-04-03T18:41:39;8.20;79.90
52435;DHT22;38354;52.892;6.148;2023-04-03T18:44:07;8.10;80.90
52435;DHT22;38354;52.892;6.148;2023-04-03T18:46:35;7.90;82.10
52435;DHT22;38354;52.892;6.148;2023-04-03T18:49:01;7.90;83.30
52435;DHT22;38354;52.892;6.148;2023-04-03T18:51:28;7.70;84.70
52435;DHT22;38354;52.892;6.148;2023-04-03T18:53:54;7.70;86.80
52435;DHT22;38354;52.892;6.148;2023-04-03T18:56:20;7.60;89.40
52435;DHT22;38354;52.892;6.148;2023-04-03T18:58:47;7.50;90.90
52435;DHT22;38354;52.892;6.148;2023-04-03T19:01:13;7.50;91.90
52435;DHT22;38354;52.892;6.148;2023-04-03T19:03:39;7.40;93.50
52435;DHT22;38354;52.892;6.148;2023-04-03T19:06:05;7.40;94.60
52435;DHT22;38354;52.892;6.148;2023-04-03T19:08:31;7.30;95.60
52435;DHT22;38354;52.892;6.148;2023-04-03T19:10:57;7.20;96.70
52435;DHT22;38354;52.892;6.148;2023-04-03T19:13:23;7.20;97.80
52435;DHT22;38354;52.892;6.148;2023-04-03T19:15:51;7.10;98.90
52435;DHT22;38354;52.892;6.148;2023-04-03T19:18:16;7.00;99.60
52435;DHT22;38354;52.892;6.148;2023-04-03T19:20:42;7.00;99.90
52435;DHT22;38354;52.892;6.148;2023-04-03T19:23:08;6.90;99.90
52435;DHT22;38354;52.892;6.148;2023-04-03T19:25:33;6.90;99.90
52435;DHT22;38354;52.892;6.148;2023-04-03T19:28:00;6.70;99.90
52435;DHT22;38354;52.892;6.148;2023-04-03T19:30:25;6.70;99.90
52435;DHT22;38354;52.892;6.148;2023-04-03T19:32:51;6.60;99.90
52435;DHT22;38354;52.892;6.148;2023-04-03T19:35:17;6.60;99.90
52435;DHT22;38354;52.892;6.148;2023-04-03T19:37:43;6.50;99.90
52435;DHT22;38354;52.892;6.148;2023-04-03T19:40:11;6.50;99.90
52435;DHT22;38354;52.892;6.148;2023-04-03T19:42:37;6.50;99.90
52435;DHT22;38354;52.892;6.148;2023-04-03T19:45:08;6.40;99.90
52435;DHT22;38354;52.892;6.148;2023-04-03T19:47:34;6.40;99.90
52435;DHT22;38354;52.892;6.148;2023-04-03T19:50:00;6.30;99.90
52435;DHT22;38354;52.892;6.148;2023-04-03T19:52:25;6.30;99.90
52435;DHT22;38354;52.892;6.148;2023-04-03T19:54:51;6.20;99.90
52435;DHT22;38354;52.892;6.148;2023-04-03T19:57:17;6.20;99.90
52435;DHT22;38354;52.892;6.148;2023-04-03T19:59:42;6.20;99.90
52435;DHT22;38354;52.892;6.148;2023-04-03T20:02:08;6.10;99.90
52435;DHT22;38354;52.892;6.148;2023-04-03T20:04:34;6.10;99.90
52435;DHT22;38354;52.892;6.148;2023-04-03T20:07:00;6.10;99.90
52435;DHT22;38354;52.892;6.148;2023-04-03T20:09:26;6.10;99.90
52435;DHT22;38354;52.892;6.148;2023-04-03T20:11:52;6.10;99.90
52435;DHT22;38354;52.892;6.148;2023-04-03T20:14:19;6.10;99.90
52435;DHT22;38354;52.892;6.148;2023-04-03T20:16:45;6.00;99.90
52435;DHT22;38354;52.892;6.148;2023-04-03T20:19:11;6.00;99.90
52435;DHT22;38354;52.892;6.148;2023-04-03T20:21:38;5.90;99.90
52435;DHT22;38354;52.892;6.148;2023-04-03T20:24:05;5.90;99.90
52435;DHT22;38354;52.892;6.148;2023-04-03T20:26:32;5.90;99.90
52435;DHT22;38354;52.892;6.148;2023-04-03T20:28:59;5.90;99.90
52435;DHT22;38354;52.892;6.148;2023-04-03T20:31:27;5.80;99.90
52435;DHT22;38354;52.892;6.148;2023-04-03T20:33:53;5.80;99.90
52435;DHT22;38354;52.892;6.148;2023-04-03T20:36:19;5.70;99.90
52435;DHT22;38354;52.892;6.148;2023-04-03T20:38:46;5.70;99.90